createdAt,value
2022-08-19T00:02:07.177Z,451.50
2022-08-19T00:04:37.331Z,445.70
2022-08-19T00:07:05.751Z,338.45
2022-08-19T00:09:33.178Z,460.60
2022-08-19T00:12:00.784Z,557.90
2022-08-19T00:14:32.191Z,535.30
2022-08-19T00:16:59.959Z,563.25
2022-08-19T00:19:27.373Z,546.92
2022-08-19T00:21:56.106Z,461.70
2022-08-19T00:24:23.612Z,336.98
2022-08-19T00:26:51.406Z,300.10
2022-08-19T00:29:21.207Z,305.70
2022-08-19T00:31:48.552Z,265.55
2022-08-19T00:34:18.170Z,191.75
2022-08-19T00:36:47.374Z,140.48
2022-08-19T00:39:16.420Z,108.97
2022-08-19T00:41:47.257Z,102.72
2022-08-19T00:44:26.897Z,105.80
2022-08-19T00:46:58.473Z,106.18
2022-08-19T00:49:37.587Z,96.47
2022-08-19T00:52:13.053Z,82.63
2022-08-19T00:54:42.183Z,102.00
2022-08-19T00:57:15.622Z,79.32
2022-08-19T01:00:00.751Z,83.32
2022-08-19T01:02:30.597Z,91.57
2022-08-19T01:04:58.132Z,80.00
2022-08-19T01:07:25.590Z,79.45
2022-08-19T01:09:53.122Z,77.03
2022-08-19T01:12:20.507Z,73.80
2022-08-19T01:14:48.489Z,74.63
2022-08-19T01:17:16.914Z,74.47
2022-08-19T01:19:47.574Z,75.47
2022-08-19T01:22:33.252Z,76.53
2022-08-19T01:25:02.158Z,78.43
2022-08-19T01:27:42.882Z,76.35
2022-08-19T01:30:15.846Z,75.28
2022-08-19T01:32:44.135Z,76.88
2022-08-19T01:35:13.371Z,79.40
2022-08-19T01:37:49.606Z,77.50
2022-08-19T01:40:20.239Z,81.07
2022-08-19T01:42:51.841Z,82.30
2022-08-19T01:45:20.586Z,84.25
2022-08-19T01:47:52.785Z,82.97
2022-08-19T01:50:29.337Z,85.32
2022-08-19T01:52:59.160Z,84.45
2022-08-19T01:55:34.419Z,77.85
2022-08-19T01:58:06.067Z,77.82
2022-08-19T02:00:34.059Z,75.47
2022-08-19T02:03:02.003Z,75.88
2022-08-19T02:05:30.091Z,75.60
2022-08-19T02:07:58.215Z,72.07
2022-08-19T02:10:26.048Z,73.13
2022-08-19T02:12:53.399Z,74.97
2022-08-19T02:15:22.586Z,70.47
2022-08-19T02:17:49.971Z,72.15
2022-08-19T02:20:17.553Z,75.28
2022-08-19T02:22:45.102Z,79.07
2022-08-19T02:25:13.915Z,81.72
2022-08-19T02:27:42.041Z,81.03
2022-08-19T02:30:14.189Z,82.65
2022-08-19T02:32:45.168Z,76.25
2022-08-19T02:35:14.311Z,78.00
2022-08-19T02:38:01.445Z,74.65
2022-08-19T02:40:30.358Z,77.35
2022-08-19T02:42:57.654Z,76.15
2022-08-19T02:45:24.829Z,75.35
2022-08-19T02:47:52.006Z,80.03
2022-08-19T02:50:19.607Z,83.88
2022-08-19T02:52:46.831Z,78.07
2022-08-19T02:55:14.068Z,78.40
2022-08-19T02:57:42.424Z,85.13
2022-08-19T03:00:13.379Z,83.97
2022-08-19T03:02:41.345Z,85.63
2022-08-19T03:05:10.511Z,90.18
2022-08-19T03:07:37.969Z,84.75
2022-08-19T03:10:06.471Z,88.85
2022-08-19T03:12:38.146Z,86.07
2022-08-19T03:15:08.298Z,88.22
2022-08-19T03:17:35.991Z,91.20
2022-08-19T03:20:04.787Z,88.45
2022-08-19T03:22:32.042Z,83.90
2022-08-19T03:24:59.997Z,85.32
2022-08-19T03:27:32.531Z,91.88
2022-08-19T03:30:02.103Z,93.72
2022-08-19T03:32:32.641Z,92.80
2022-08-19T03:35:00.547Z,99.80
2022-08-19T03:37:27.707Z,104.30
2022-08-19T03:39:54.929Z,110.53
2022-08-19T03:42:38.499Z,110.70
2022-08-19T03:45:11.342Z,112.82
2022-08-19T03:47:38.750Z,112.63
2022-08-19T03:50:06.317Z,114.85
2022-08-19T03:52:33.490Z,110.38
2022-08-19T03:55:00.665Z,116.63
2022-08-19T03:57:32.060Z,111.70
2022-08-19T04:00:04.028Z,109.45
2022-08-19T04:02:41.376Z,113.95
2022-08-19T04:05:09.163Z,117.90
2022-08-19T04:07:36.533Z,118.75
2022-08-19T04:10:04.842Z,125.53
2022-08-19T04:12:32.562Z,128.05
2022-08-19T04:14:59.746Z,123.60
2022-08-19T04:17:26.935Z,124.82
2022-08-19T04:19:54.114Z,132.35
2022-08-19T04:22:21.264Z,134.07
2022-08-19T04:24:48.457Z,135.43
2022-08-19T04:27:17.410Z,147.60
2022-08-19T04:29:44.597Z,151.15
2022-08-19T04:32:12.076Z,149.98
2022-08-19T04:35:02.343Z,162.15
2022-08-19T04:37:29.554Z,161.32
2022-08-19T04:40:22.775Z,161.02
2022-08-19T04:42:49.995Z,170.55
2022-08-19T04:45:17.684Z,173.05
2022-08-19T04:47:47.576Z,171.70
2022-08-19T04:50:28.219Z,162.73
2022-08-19T04:52:56.919Z,159.55
2022-08-19T04:55:26.448Z,157.75
2022-08-19T04:57:57.142Z,142.43
2022-08-19T05:00:24.763Z,127.30
2022-08-19T05:02:52.053Z,123.32
2022-08-19T05:05:20.671Z,119.00
2022-08-19T05:07:48.081Z,121.57
2022-08-19T05:10:15.319Z,114.55
2022-08-19T05:12:42.532Z,110.93
2022-08-19T05:15:10.151Z,108.93
2022-08-19T05:17:38.942Z,110.38
2022-08-19T05:20:26.744Z,106.57
2022-08-19T05:22:54.267Z,107.43
2022-08-19T05:25:22.668Z,104.22
2022-08-19T05:27:50.216Z,102.35
2022-08-19T05:30:17.919Z,105.88
2022-08-19T05:32:45.855Z,99.80
2022-08-19T05:35:13.154Z,103.22
2022-08-19T05:37:43.795Z,110.05
2022-08-19T05:40:11.896Z,101.95
2022-08-19T05:42:42.294Z,102.00
2022-08-19T05:45:09.978Z,106.35
2022-08-19T05:47:42.133Z,111.28
2022-08-19T05:50:09.912Z,109.97
2022-08-19T05:52:39.066Z,107.18
2022-08-19T05:55:11.375Z,107.05
2022-08-19T05:57:38.703Z,105.55
2022-08-19T06:00:11.848Z,96.97
2022-08-19T06:02:42.090Z,90.65
2022-08-19T06:05:10.144Z,95.40
2022-08-19T06:07:38.482Z,93.57
2022-08-19T06:10:08.174Z,163.15
2022-08-19T06:12:36.495Z,192.68
2022-08-19T06:15:07.790Z,154.93
2022-08-19T06:17:36.030Z,154.02
2022-08-19T06:20:09.652Z,196.90
2022-08-19T06:22:45.377Z,563.05
2022-08-19T06:25:15.129Z,715.50
2022-08-19T06:28:11.369Z,1065.53
2022-08-19T06:30:30.467Z,1079.25
2022-08-19T06:33:01.939Z,1571.00
2022-08-19T06:35:31.870Z,1882.05
2022-08-19T06:37:59.826Z,1848.35
2022-08-19T06:40:28.367Z,1820.00
2022-08-19T06:42:57.265Z,1589.75
2022-08-19T06:45:34.784Z,1314.55
2022-08-19T06:48:03.622Z,1165.72
2022-08-19T06:50:31.968Z,1519.78
2022-08-19T06:53:04.601Z,1145.22
2022-08-19T06:55:33.370Z,1494.40
2022-08-19T06:58:04.574Z,1999.90
2022-08-19T07:03:08.806Z,1999.90
2022-08-19T07:05:45.915Z,1999.90
2022-08-19T07:08:18.361Z,1999.90
2022-08-19T07:11:01.301Z,1999.90
2022-08-19T07:13:44.282Z,1999.90
2022-08-19T07:16:19.555Z,1999.90
2022-08-19T07:19:15.754Z,1999.90
2022-08-19T07:21:43.537Z,1999.90
2022-08-19T07:24:10.957Z,1999.90
2022-08-19T07:26:43.474Z,1999.90
2022-08-19T07:29:11.857Z,1999.90
2022-08-19T07:31:40.971Z,1999.90
2022-08-19T07:34:14.214Z,1999.90
2022-08-19T07:36:42.923Z,1999.90
2022-08-19T07:39:19.210Z,1999.90
2022-08-19T07:41:47.727Z,1999.90
2022-08-19T07:44:16.562Z,1999.90
2022-08-19T07:46:48.206Z,1999.90
2022-08-19T07:49:20.981Z,1999.90
2022-08-19T07:51:53.503Z,1999.90
2022-08-19T07:54:22.525Z,1999.90
2022-08-19T07:56:52.496Z,1999.90
2022-08-19T07:59:21.529Z,1999.90
2022-08-19T08:01:50.071Z,1999.90
2022-08-19T08:04:36.670Z,1999.90
2022-08-19T08:07:24.176Z,1999.90
2022-08-19T08:09:52.519Z,1999.90
2022-08-19T08:12:34.802Z,1999.90
2022-08-19T08:15:08.729Z,1999.90
2022-08-19T08:17:49.467Z,1999.90
2022-08-19T08:20:20.509Z,1999.90
2022-08-19T08:23:06.924Z,1999.90
2022-08-19T08:25:36.331Z,1999.90
2022-08-19T08:28:04.994Z,1999.90
2022-08-19T08:30:34.150Z,1999.90
2022-08-19T08:33:02.511Z,1999.90
2022-08-19T08:35:30.252Z,1999.90
2022-08-19T08:37:57.834Z,1999.90
2022-08-19T08:40:35.763Z,1999.90
2022-08-19T08:43:19.020Z,1999.90
2022-08-19T08:45:54.291Z,1999.90
2022-08-19T08:48:34.141Z,1999.90
2022-08-19T08:51:06.475Z,1999.90
2022-08-19T08:53:41.442Z,1999.90
2022-08-19T08:56:13.859Z,1999.90
2022-08-19T08:58:59.166Z,1999.90
2022-08-19T09:01:30.341Z,1999.90
2022-08-19T09:04:02.817Z,1999.90
2022-08-19T09:06:48.800Z,1999.90
2022-08-19T09:09:31.828Z,1999.90
2022-08-19T09:12:05.260Z,1999.90
2022-08-19T09:14:51.967Z,1999.90
2022-08-19T09:17:31.343Z,1999.90
2022-08-19T09:20:09.458Z,1999.90
2022-08-19T09:22:41.367Z,1999.90
2022-08-19T09:25:10.411Z,1999.90
2022-08-19T09:27:43.107Z,1999.90
2022-08-19T09:30:16.659Z,1999.90
2022-08-19T09:32:44.886Z,1999.90
2022-08-19T09:35:13.650Z,1999.90
2022-08-19T09:37:41.663Z,1999.90
2022-08-19T09:40:12.354Z,1999.90
2022-08-19T09:42:39.605Z,1999.90
2022-08-19T09:45:22.563Z,1999.90
2022-08-19T09:47:55.183Z,1999.90
2022-08-19T09:50:24.400Z,1999.90
2022-08-19T09:52:54.121Z,1999.90
2022-08-19T09:55:31.612Z,1999.90
2022-08-19T09:58:01.849Z,1999.90
2022-08-19T10:00:30.060Z,1999.90
2022-08-19T10:02:57.259Z,1999.90
2022-08-19T10:05:42.957Z,1999.90
2022-08-19T10:08:13.348Z,1999.90
2022-08-19T10:10:46.241Z,1999.90
2022-08-19T10:13:16.691Z,1999.90
2022-08-19T10:15:47.619Z,1999.90
2022-08-19T10:18:18.588Z,1999.90
2022-08-19T10:20:51.448Z,1999.90
2022-08-19T10:23:21.893Z,1999.90
2022-08-19T10:25:50.562Z,1999.90
2022-08-19T10:28:19.478Z,1999.90
2022-08-19T10:30:48.435Z,1999.90
2022-08-19T10:33:15.976Z,1999.90
2022-08-19T10:36:16.214Z,1999.90
2022-08-19T10:38:56.637Z,1999.90
2022-08-19T10:41:28.088Z,1999.90
2022-08-19T10:43:58.518Z,1999.90
2022-08-19T10:46:33.565Z,1999.90
2022-08-19T10:49:02.679Z,1999.90
2022-08-19T10:51:48.803Z,1999.90
2022-08-19T10:54:17.934Z,1999.90
2022-08-19T10:56:58.748Z,1999.90
2022-08-19T10:59:35.305Z,1999.90
2022-08-19T11:02:06.406Z,1999.90
2022-08-19T11:04:34.149Z,1999.90
2022-08-19T11:07:04.699Z,1999.90
2022-08-19T11:09:34.328Z,1999.90
2022-08-19T11:12:03.057Z,1999.90
2022-08-19T11:14:34.002Z,1999.90
2022-08-19T11:17:03.022Z,1999.90
2022-08-19T11:19:30.898Z,1999.90
2022-08-19T11:22:00.310Z,1999.90
2022-08-19T11:24:28.382Z,1999.90
2022-08-19T11:27:03.508Z,1999.90
2022-08-19T11:29:31.565Z,1999.90
2022-08-19T11:31:58.741Z,1999.90
2022-08-19T11:34:29.158Z,1999.90
2022-08-19T11:36:59.554Z,1999.90
2022-08-19T11:39:29.919Z,1999.90
2022-08-19T11:41:59.636Z,1999.90
2022-08-19T11:44:26.978Z,1999.90
2022-08-19T11:46:54.276Z,1999.90
2022-08-19T11:49:22.106Z,1999.90
2022-08-19T11:51:51.576Z,1999.90
2022-08-19T11:54:20.999Z,1999.90
2022-08-19T11:56:49.917Z,1999.90
2022-08-19T11:59:17.250Z,1999.90
2022-08-19T12:01:44.740Z,1999.90
2022-08-19T12:04:12.213Z,1999.90
2022-08-19T12:06:42.074Z,1999.90
2022-08-19T12:09:10.657Z,1999.90
2022-08-19T12:11:39.617Z,1999.90
2022-08-19T12:14:07.004Z,1999.90
2022-08-19T12:16:34.714Z,1999.90
2022-08-19T12:19:06.130Z,1999.90
2022-08-19T12:21:36.178Z,1999.90
2022-08-19T12:24:08.350Z,1999.90
2022-08-19T12:26:52.607Z,1999.90
2022-08-19T12:29:23.919Z,1999.90
2022-08-19T12:31:52.109Z,1999.90
2022-08-19T12:34:20.900Z,1999.90
2022-08-19T12:36:50.132Z,1999.90
2022-08-19T12:39:17.741Z,1999.90
2022-08-19T12:41:51.667Z,1999.90
2022-08-19T12:44:28.797Z,1999.90
2022-08-19T12:46:57.756Z,1999.90
2022-08-19T12:49:34.393Z,1999.90
2022-08-19T12:52:16.085Z,1999.90
2022-08-19T12:54:44.085Z,1999.90
2022-08-19T12:57:12.263Z,1999.90
2022-08-19T12:59:40.231Z,1999.90
2022-08-19T13:02:09.091Z,1999.90
2022-08-19T13:04:37.266Z,1999.90
2022-08-19T13:07:05.033Z,1999.90
2022-08-19T13:09:32.214Z,1999.90
2022-08-19T13:12:01.140Z,1999.90
2022-08-19T13:14:28.353Z,1999.90
2022-08-19T13:16:55.548Z,1999.90
2022-08-19T13:19:24.393Z,1999.90
2022-08-19T13:21:52.242Z,1999.90
2022-08-19T13:24:27.748Z,1999.90
2022-08-19T13:27:01.774Z,1999.90
2022-08-19T13:29:52.582Z,1999.90
2022-08-19T13:32:38.859Z,1999.90
2022-08-19T13:35:11.867Z,1999.90
2022-08-19T13:37:42.304Z,1999.90
2022-08-19T13:40:13.675Z,1999.90
2022-08-19T13:42:41.906Z,1999.90
2022-08-19T13:45:09.763Z,1999.90
2022-08-19T13:47:39.928Z,1999.90
2022-08-19T13:50:07.635Z,1999.90
2022-08-19T13:52:34.813Z,1999.90
2022-08-19T13:55:02.009Z,1999.90
2022-08-19T13:57:29.179Z,1999.90
2022-08-19T13:59:56.407Z,1999.90
2022-08-19T14:02:23.622Z,1999.90
2022-08-19T14:04:50.804Z,1999.90
2022-08-19T14:07:17.965Z,1999.90
2022-08-19T14:09:45.144Z,1999.90
2022-08-19T14:12:14.738Z,1999.90
2022-08-19T14:14:41.956Z,1999.90
2022-08-19T14:17:10.135Z,1999.90
2022-08-19T14:19:40.809Z,1999.90
2022-08-19T14:22:08.398Z,1999.90
2022-08-19T14:24:40.815Z,1999.90
2022-08-19T14:27:15.693Z,1999.90
2022-08-19T14:29:43.096Z,1999.90
2022-08-19T14:32:11.050Z,1999.90
2022-08-19T14:34:46.638Z,1999.90
2022-08-19T14:37:17.573Z,1999.90
2022-08-19T14:39:46.140Z,1999.90
2022-08-19T14:42:15.384Z,1999.90
2022-08-19T14:44:43.846Z,1999.90
2022-08-19T14:47:11.163Z,1999.90
2022-08-19T14:49:42.229Z,1999.90
2022-08-19T14:52:11.973Z,1999.90
2022-08-19T14:54:39.184Z,1999.90
2022-08-19T14:57:06.369Z,1999.90
2022-08-19T14:59:35.666Z,1999.90
2022-08-19T15:02:20.426Z,1999.90
2022-08-19T15:04:58.005Z,1999.90
2022-08-19T15:07:28.880Z,1999.90
2022-08-19T15:09:56.716Z,1999.90
2022-08-19T15:12:24.861Z,1999.90
2022-08-19T15:14:56.002Z,1999.90
2022-08-19T15:17:45.337Z,1999.90
2022-08-19T15:20:14.535Z,1999.90
2022-08-19T15:22:43.066Z,1999.90
2022-08-19T15:25:12.229Z,1999.90
2022-08-19T15:27:40.642Z,1999.90
2022-08-19T15:30:09.783Z,1999.90
2022-08-19T15:32:38.504Z,1999.90
2022-08-19T15:35:07.926Z,1999.90
2022-08-19T15:37:37.420Z,1999.90
2022-08-19T15:40:09.422Z,1999.90
2022-08-19T15:42:38.108Z,1999.90
2022-08-19T15:45:06.768Z,1999.90
2022-08-19T15:47:34.550Z,1999.90
2022-08-19T15:50:10.713Z,1999.90
2022-08-19T15:52:53.038Z,1999.90
2022-08-19T15:55:32.653Z,1999.90
2022-08-19T15:58:32.070Z,1999.90
2022-08-19T16:01:21.354Z,1999.90
2022-08-19T16:04:12.655Z,1999.90
2022-08-19T16:06:51.497Z,1999.90
2022-08-19T16:09:26.415Z,1999.90
2022-08-19T16:12:02.251Z,1999.90
2022-08-19T16:14:32.674Z,1999.90
2022-08-19T16:17:00.424Z,1999.90
2022-08-19T16:19:27.942Z,1999.90
2022-08-19T16:21:57.013Z,1999.90
2022-08-19T16:24:26.800Z,1999.90
2022-08-19T16:26:54.798Z,1999.90
2022-08-19T16:29:34.513Z,1999.90
2022-08-19T16:32:10.637Z,1999.90
2022-08-19T16:34:39.985Z,1999.90
2022-08-19T16:37:07.414Z,1999.90
2022-08-19T16:39:34.634Z,1999.90
2022-08-19T16:42:02.703Z,1999.90
2022-08-19T16:44:30.199Z,1999.90
2022-08-19T16:46:59.640Z,1999.90
2022-08-19T16:49:53.976Z,1999.90
2022-08-19T16:52:16.449Z,1999.90
2022-08-19T16:54:44.016Z,1999.90
2022-08-19T16:57:12.784Z,1999.90
2022-08-19T16:59:42.602Z,1999.90
2022-08-19T17:02:18.181Z,1999.90
2022-08-19T17:04:57.546Z,1999.90
2022-08-19T17:07:33.500Z,1999.90
2022-08-19T17:10:03.710Z,1999.90
2022-08-19T17:12:32.381Z,1999.90
2022-08-19T17:15:01.561Z,1999.90
2022-08-19T17:17:31.177Z,1999.90
2022-08-19T17:24:25.076Z,1999.90
2022-08-19T17:27:52.339Z,1999.90
2022-08-19T17:32:25.438Z,1999.90
2022-08-19T17:39:52.430Z,1999.90
2022-08-19T18:01:21.715Z,1999.90
2022-08-19T18:10:06.546Z,1999.90
2022-08-19T18:17:20.987Z,1999.90
2022-08-19T18:21:16.458Z,1999.90
2022-08-19T18:24:31.585Z,1999.90
2022-08-19T18:27:46.684Z,1999.90
2022-08-19T18:30:31.277Z,1999.90
2022-08-19T18:34:13.364Z,1999.90
2022-08-19T18:40:27.492Z,1667.15
2022-08-19T18:43:42.399Z,644.80
2022-08-19T18:47:29.968Z,639.45
2022-08-19T18:50:43.782Z,164.07
2022-08-19T18:56:30.812Z,51.67
2022-08-19T18:59:11.273Z,118.53
2022-08-19T19:02:05.643Z,16.80
2022-08-19T19:05:07.573Z,13.65
2022-08-19T19:14:45.727Z,24.90
2022-08-19T19:21:00.777Z,12.55
2022-08-19T19:27:30.355Z,15.05
2022-08-19T19:40:49.038Z,14.88
2022-08-19T20:01:59.898Z,19.50
2022-08-19T20:05:09.101Z,19.77
2022-08-19T20:08:44.889Z,24.40
2022-08-19T20:11:56.631Z,22.52
2022-08-19T20:28:47.883Z,20.17
2022-08-19T20:34:50.347Z,19.23
2022-08-19T20:37:36.966Z,18.60
2022-08-19T20:40:12.022Z,18.70
2022-08-19T20:43:01.875Z,16.20
2022-08-19T20:45:55.559Z,18.77
2022-08-19T20:48:32.374Z,21.90
2022-08-19T20:51:34.507Z,21.33
2022-08-19T20:54:06.490Z,20.98
2022-08-19T20:56:36.214Z,17.58
2022-08-19T20:59:07.242Z,20.92
2022-08-19T21:01:37.254Z,20.00
2022-08-19T21:04:04.479Z,18.05
2022-08-19T21:06:36.947Z,17.70
2022-08-19T21:09:20.786Z,16.60
2022-08-19T21:11:53.872Z,17.20
2022-08-19T21:14:26.370Z,16.63
2022-08-19T21:16:55.969Z,17.27
2022-08-19T21:19:24.099Z,16.98
2022-08-19T21:21:59.595Z,18.98
2022-08-19T21:24:31.482Z,20.15
2022-08-19T21:27:03.645Z,106.85
2022-08-19T21:29:35.790Z,21.30
2022-08-19T21:32:04.258Z,21.58
2022-08-19T21:34:35.045Z,20.45
2022-08-19T21:37:05.648Z,20.38
2022-08-19T21:39:38.905Z,22.67
2022-08-19T21:42:06.173Z,21.63
2022-08-19T21:44:33.401Z,21.05
2022-08-19T21:47:05.253Z,23.65
2022-08-19T21:49:36.606Z,20.83
2022-08-19T21:52:06.455Z,20.23
2022-08-19T21:54:38.231Z,24.30
2022-08-19T21:57:10.157Z,23.17
2022-08-19T21:59:44.011Z,18.10
2022-08-19T22:02:22.130Z,16.35
2022-08-19T22:04:53.456Z,15.75
2022-08-19T22:07:21.930Z,14.10
2022-08-19T22:09:51.787Z,11.75
2022-08-19T22:12:28.439Z,9.57
2022-08-19T22:14:56.711Z,9.73
2022-08-19T22:17:25.016Z,10.65
2022-08-19T22:19:53.501Z,38.90
2022-08-19T22:22:26.280Z,15.18
2022-08-19T22:24:55.027Z,15.15
2022-08-19T22:27:24.431Z,13.27
2022-08-19T22:29:52.554Z,20.48
2022-08-19T22:32:28.174Z,14.32
2022-08-19T22:34:58.817Z,15.35
2022-08-19T22:37:27.406Z,19.30
2022-08-19T22:39:55.765Z,13.13
2022-08-19T22:42:24.691Z,14.48
2022-08-19T22:44:58.667Z,17.35
2022-08-19T22:47:29.436Z,18.88
2022-08-19T22:50:02.207Z,19.60
2022-08-19T22:52:29.983Z,23.95
2022-08-19T22:55:02.309Z,29.02
2022-08-19T22:57:29.570Z,39.95
2022-08-19T22:59:58.888Z,40.92
2022-08-19T23:02:34.476Z,33.75
2022-08-19T23:05:03.700Z,54.58
2022-08-19T23:07:31.184Z,34.45
2022-08-19T23:09:58.862Z,31.90
2022-08-19T23:12:30.605Z,26.13
2022-08-19T23:15:08.562Z,28.35
2022-08-19T23:17:36.782Z,36.20
2022-08-19T23:20:07.940Z,55.67
2022-08-19T23:22:38.131Z,47.03
2022-08-19T23:25:07.595Z,53.33
2022-08-19T23:27:53.339Z,40.45
2022-08-19T23:30:27.066Z,25.90
2022-08-19T23:32:57.764Z,26.88
2022-08-19T23:35:26.979Z,31.48
2022-08-19T23:37:54.209Z,43.08
2022-08-19T23:40:21.949Z,38.15
2022-08-19T23:42:50.863Z,30.70
2022-08-19T23:45:23.727Z,38.20
2022-08-19T23:47:53.354Z,23.35
2022-08-19T23:50:21.964Z,22.85
2022-08-19T23:52:53.032Z,32.05
2022-08-19T23:55:23.571Z,30.17
2022-08-19T23:57:51.276Z,27.88
